sensor_id;sensor_type;location;lat;lon;timestamp;P1;durP1;ratioP1;P2;durP2;ratioP2
5616;SDS011;2830;50.656;7.568;2023-04-07T00:00:40;24.80;;;12.50;;
5616;SDS011;2830;50.656;7.568;2023-04-07T00:03:07;24.27;;;12.13;;
5616;SDS011;2830;50.656;7.568;2023-04-07T00:05:34;22.40;;;12.10;;
5616;SDS011;2830;50.656;7.568;2023-04-07T00:08:00;24.17;;;11.50;;
5616;SDS011;2830;50.656;7.568;2023-04-07T00:10:27;24.57;;;12.00;;
5616;SDS011;2830;50.656;7.568;2023-04-07T00:12:54;24.25;;;11.10;;
5616;SDS011;2830;50.656;7.568;2023-04-07T00:15:20;25.50;;;12.87;;
5616;SDS011;2830;50.656;7.568;2023-04-07T00:17:47;29.90;;;12.70;;
5616;SDS011;2830;50.656;7.568;2023-04-07T00:20:14;23.37;;;12.30;;
5616;SDS011;2830;50.656;7.568;2023-04-07T00:22:41;26.10;;;13.37;;
5616;SDS011;2830;50.656;7.568;2023-04-07T00:25:08;24.10;;;12.70;;
5616;SDS011;2830;50.656;7.568;2023-04-07T00:27:35;24.77;;;12.43;;
5616;SDS011;2830;50.656;7.568;2023-04-07T00:30:02;23.57;;;12.57;;
5616;SDS011;2830;50.656;7.568;2023-04-07T00:32:29;23.23;;;11.83;;
5616;SDS011;2830;50.656;7.568;2023-04-07T00:34:56;24.33;;;12.23;;
5616;SDS011;2830;50.656;7.568;2023-04-07T00:37:22;24.03;;;12.13;;
5616;SDS011;2830;50.656;7.568;2023-04-07T00:39:50;23.13;;;11.70;;
5616;SDS011;2830;50.656;7.568;2023-04-07T00:42:17;24.93;;;11.90;;
5616;SDS011;2830;50.656;7.568;2023-04-07T00:44:44;21.60;;;12.10;;
5616;SDS011;2830;50.656;7.568;2023-04-07T00:47:11;23.97;;;12.60;;
5616;SDS011;2830;50.656;7.568;2023-04-07T00:49:38;23.90;;;12.03;;
5616;SDS011;2830;50.656;7.568;2023-04-07T00:52:04;22.00;;;11.43;;
5616;SDS011;2830;50.656;7.568;2023-04-07T00:54:32;23.40;;;11.63;;
5616;SDS011;2830;50.656;7.568;2023-04-07T00:56:58;27.93;;;11.80;;
5616;SDS011;2830;50.656;7.568;2023-04-07T00:59:26;24.80;;;11.83;;
5616;SDS011;2830;50.656;7.568;2023-04-07T01:04:40;22.00;;;10.97;;
5616;SDS011;2830;50.656;7.568;2023-04-07T01:07:43;22.10;;;12.17;;
5616;SDS011;2830;50.656;7.568;2023-04-07T01:10:14;21.97;;;11.73;;
5616;SDS011;2830;50.656;7.568;2023-04-07T01:12:48;24.00;;;13.33;;
5616;SDS011;2830;50.656;7.568;2023-04-07T01:15:24;25.70;;;12.10;;
5616;SDS011;2830;50.656;7.568;2023-04-07T01:17:58;24.13;;;11.83;;
5616;SDS011;2830;50.656;7.568;2023-04-07T01:20:32;22.63;;;12.43;;
5616;SDS011;2830;50.656;7.568;2023-04-07T01:23:03;23.07;;;11.80;;
5616;SDS011;2830;50.656;7.568;2023-04-07T01:25:51;21.97;;;11.43;;
5616;SDS011;2830;50.656;7.568;2023-04-07T01:31:24;24.83;;;12.20;;
5616;SDS011;2830;50.656;7.568;2023-04-07T01:33:52;20.50;;;10.80;;
5616;SDS011;2830;50.656;7.568;2023-04-07T01:36:20;21.90;;;11.83;;
5616;SDS011;2830;50.656;7.568;2023-04-07T01:38:48;24.17;;;11.70;;
5616;SDS011;2830;50.656;7.568;2023-04-07T01:41:15;24.50;;;10.93;;
5616;SDS011;2830;50.656;7.568;2023-04-07T01:43:43;24.50;;;12.47;;
5616;SDS011;2830;50.656;7.568;2023-04-07T01:46:13;21.50;;;11.27;;
5616;SDS011;2830;50.656;7.568;2023-04-07T01:48:40;22.40;;;11.73;;
5616;SDS011;2830;50.656;7.568;2023-04-07T01:51:07;23.80;;;12.90;;
5616;SDS011;2830;50.656;7.568;2023-04-07T01:53:37;24.13;;;11.80;;
5616;SDS011;2830;50.656;7.568;2023-04-07T01:56:04;20.47;;;10.47;;
5616;SDS011;2830;50.656;7.568;2023-04-07T01:58:31;27.30;;;11.73;;
5616;SDS011;2830;50.656;7.568;2023-04-07T02:00:58;23.20;;;11.73;;
5616;SDS011;2830;50.656;7.568;2023-04-07T02:06:22;24.23;;;12.63;;
5616;SDS011;2830;50.656;7.568;2023-04-07T02:08:54;21.07;;;11.53;;
5616;SDS011;2830;50.656;7.568;2023-04-07T02:11:26;20.40;;;11.13;;
5616;SDS011;2830;50.656;7.568;2023-04-07T02:13:57;22.70;;;10.97;;
5616;SDS011;2830;50.656;7.568;2023-04-07T02:16:27;24.73;;;11.50;;
5616;SDS011;2830;50.656;7.568;2023-04-07T02:18:56;23.63;;;12.00;;
5616;SDS011;2830;50.656;7.568;2023-04-07T02:21:24;23.03;;;12.50;;
5616;SDS011;2830;50.656;7.568;2023-04-07T02:23:52;27.90;;;13.53;;
5616;SDS011;2830;50.656;7.568;2023-04-07T02:26:19;24.70;;;12.60;;
5616;SDS011;2830;50.656;7.568;2023-04-07T02:28:46;26.90;;;12.60;;
5616;SDS011;2830;50.656;7.568;2023-04-07T02:31:13;25.40;;;12.43;;
5616;SDS011;2830;50.656;7.568;2023-04-07T02:33:39;25.53;;;13.00;;
5616;SDS011;2830;50.656;7.568;2023-04-07T02:36:06;24.40;;;12.37;;
5616;SDS011;2830;50.656;7.568;2023-04-07T02:38:33;22.87;;;13.03;;
5616;SDS011;2830;50.656;7.568;2023-04-07T02:40:59;26.37;;;12.70;;
5616;SDS011;2830;50.656;7.568;2023-04-07T02:43:26;23.80;;;13.73;;
5616;SDS011;2830;50.656;7.568;2023-04-07T02:45:53;26.23;;;13.10;;
5616;SDS011;2830;50.656;7.568;2023-04-07T02:48:20;31.13;;;13.73;;
5616;SDS011;2830;50.656;7.568;2023-04-07T02:50:46;23.77;;;12.93;;
5616;SDS011;2830;50.656;7.568;2023-04-07T02:53:13;25.00;;;12.33;;
5616;SDS011;2830;50.656;7.568;2023-04-07T02:55:40;26.60;;;13.57;;
5616;SDS011;2830;50.656;7.568;2023-04-07T02:58:07;26.23;;;12.90;;
5616;SDS011;2830;50.656;7.568;2023-04-07T03:00:33;25.23;;;13.27;;
5616;SDS011;2830;50.656;7.568;2023-04-07T03:03:00;27.07;;;13.93;;
5616;SDS011;2830;50.656;7.568;2023-04-07T03:05:27;23.40;;;12.93;;
5616;SDS011;2830;50.656;7.568;2023-04-07T03:07:54;26.10;;;13.20;;
5616;SDS011;2830;50.656;7.568;2023-04-07T03:10:20;23.57;;;13.03;;
5616;SDS011;2830;50.656;7.568;2023-04-07T03:12:47;22.73;;;12.07;;
5616;SDS011;2830;50.656;7.568;2023-04-07T03:15:14;25.17;;;12.57;;
5616;SDS011;2830;50.656;7.568;2023-04-07T03:17:44;24.53;;;12.93;;
5616;SDS011;2830;50.656;7.568;2023-04-07T03:20:11;26.83;;;13.47;;
5616;SDS011;2830;50.656;7.568;2023-04-07T03:22:38;25.63;;;13.10;;
5616;SDS011;2830;50.656;7.568;2023-04-07T03:25:04;25.30;;;13.60;;
5616;SDS011;2830;50.656;7.568;2023-04-07T03:27:31;26.20;;;13.63;;
5616;SDS011;2830;50.656;7.568;2023-04-07T03:29:58;25.47;;;12.70;;
5616;SDS011;2830;50.656;7.568;2023-04-07T03:32:24;26.80;;;13.30;;
5616;SDS011;2830;50.656;7.568;2023-04-07T03:34:51;24.13;;;13.13;;
5616;SDS011;2830;50.656;7.568;2023-04-07T03:37:18;26.50;;;13.53;;
5616;SDS011;2830;50.656;7.568;2023-04-07T03:39:44;24.90;;;13.33;;
5616;SDS011;2830;50.656;7.568;2023-04-07T03:42:11;23.63;;;11.93;;
5616;SDS011;2830;50.656;7.568;2023-04-07T03:44:38;24.77;;;11.77;;
5616;SDS011;2830;50.656;7.568;2023-04-07T03:47:05;22.30;;;12.90;;
5616;SDS011;2830;50.656;7.568;2023-04-07T03:49:31;25.03;;;12.93;;
5616;SDS011;2830;50.656;7.568;2023-04-07T03:51:58;27.50;;;15.00;;
5616;SDS011;2830;50.656;7.568;2023-04-07T03:54:24;24.77;;;13.57;;
5616;SDS011;2830;50.656;7.568;2023-04-07T03:56:51;24.07;;;12.30;;
5616;SDS011;2830;50.656;7.568;2023-04-07T03:59:25;23.43;;;11.77;;
5616;SDS011;2830;50.656;7.568;2023-04-07T04:01:52;22.73;;;12.13;;
5616;SDS011;2830;50.656;7.568;2023-04-07T04:04:19;22.37;;;11.53;;
5616;SDS011;2830;50.656;7.568;2023-04-07T04:06:46;23.80;;;12.27;;
5616;SDS011;2830;50.656;7.568;2023-04-07T04:09:12;24.37;;;12.30;;
5616;SDS011;2830;50.656;7.568;2023-04-07T04:11:39;25.83;;;12.43;;
5616;SDS011;2830;50.656;7.568;2023-04-07T04:14:06;24.90;;;13.13;;
5616;SDS011;2830;50.656;7.568;2023-04-07T04:16:33;23.27;;;13.13;;
5616;SDS011;2830;50.656;7.568;2023-04-07T04:19:03;23.40;;;11.93;;
5616;SDS011;2830;50.656;7.568;2023-04-07T04:21:29;23.63;;;12.23;;
5616;SDS011;2830;50.656;7.568;2023-04-07T04:23:56;22.13;;;11.33;;
5616;SDS011;2830;50.656;7.568;2023-04-07T04:26:23;19.83;;;10.77;;
5616;SDS011;2830;50.656;7.568;2023-04-07T04:28:51;27.43;;;13.10;;
5616;SDS011;2830;50.656;7.568;2023-04-07T04:31:18;24.93;;;13.00;;
5616;SDS011;2830;50.656;7.568;2023-04-07T04:33:45;23.13;;;12.63;;
5616;SDS011;2830;50.656;7.568;2023-04-07T04:36:11;26.47;;;13.43;;
5616;SDS011;2830;50.656;7.568;2023-04-07T04:38:38;23.67;;;12.63;;
5616;SDS011;2830;50.656;7.568;2023-04-07T04:41:05;26.00;;;12.53;;
5616;SDS011;2830;50.656;7.568;2023-04-07T04:43:32;23.70;;;12.20;;
5616;SDS011;2830;50.656;7.568;2023-04-07T04:45:58;21.90;;;10.60;;
5616;SDS011;2830;50.656;7.568;2023-04-07T04:48:25;25.93;;;13.07;;
5616;SDS011;2830;50.656;7.568;2023-04-07T04:50:52;23.33;;;11.37;;
5616;SDS011;2830;50.656;7.568;2023-04-07T04:53:19;22.30;;;11.07;;
5616;SDS011;2830;50.656;7.568;2023-04-07T04:55:45;21.13;;;10.57;;
5616;SDS011;2830;50.656;7.568;2023-04-07T04:58:17;25.80;;;12.50;;
5616;SDS011;2830;50.656;7.568;2023-04-07T05:00:45;24.17;;;11.93;;
5616;SDS011;2830;50.656;7.568;2023-04-07T05:03:12;21.40;;;10.50;;
5616;SDS011;2830;50.656;7.568;2023-04-07T05:05:39;22.70;;;11.33;;
5616;SDS011;2830;50.656;7.568;2023-04-07T05:08:07;28.80;;;12.60;;
5616;SDS011;2830;50.656;7.568;2023-04-07T05:10:37;25.40;;;12.90;;
5616;SDS011;2830;50.656;7.568;2023-04-07T05:13:05;21.87;;;11.00;;
5616;SDS011;2830;50.656;7.568;2023-04-07T05:15:32;25.47;;;13.70;;
5616;SDS011;2830;50.656;7.568;2023-04-07T05:17:58;23.10;;;12.30;;
5616;SDS011;2830;50.656;7.568;2023-04-07T05:20:25;25.20;;;12.43;;
5616;SDS011;2830;50.656;7.568;2023-04-07T05:22:52;24.37;;;12.63;;
5616;SDS011;2830;50.656;7.568;2023-04-07T05:25:18;24.60;;;12.67;;
5616;SDS011;2830;50.656;7.568;2023-04-07T05:27:45;22.30;;;12.20;;
5616;SDS011;2830;50.656;7.568;2023-04-07T05:30:12;22.50;;;11.20;;
5616;SDS011;2830;50.656;7.568;2023-04-07T05:32:39;22.50;;;10.60;;
5616;SDS011;2830;50.656;7.568;2023-04-07T05:35:06;22.10;;;11.57;;
5616;SDS011;2830;50.656;7.568;2023-04-07T05:37:33;21.13;;;10.03;;
5616;SDS011;2830;50.656;7.568;2023-04-07T05:39:59;21.13;;;9.50;;
5616;SDS011;2830;50.656;7.568;2023-04-07T05:42:26;20.60;;;10.13;;
5616;SDS011;2830;50.656;7.568;2023-04-07T05:44:53;22.57;;;9.53;;
5616;SDS011;2830;50.656;7.568;2023-04-07T05:47:21;23.00;;;10.87;;
5616;SDS011;2830;50.656;7.568;2023-04-07T05:49:47;24.50;;;12.80;;
5616;SDS011;2830;50.656;7.568;2023-04-07T05:52:14;24.13;;;11.63;;
5616;SDS011;2830;50.656;7.568;2023-04-07T05:54:41;24.00;;;10.90;;
5616;SDS011;2830;50.656;7.568;2023-04-07T05:57:07;23.23;;;11.50;;
5616;SDS011;2830;50.656;7.568;2023-04-07T05:59:34;24.60;;;11.50;;
5616;SDS011;2830;50.656;7.568;2023-04-07T06:02:02;22.27;;;11.60;;
5616;SDS011;2830;50.656;7.568;2023-04-07T06:04:29;21.27;;;11.00;;
5616;SDS011;2830;50.656;7.568;2023-04-07T06:06:56;23.70;;;11.00;;
5616;SDS011;2830;50.656;7.568;2023-04-07T06:09:22;23.60;;;10.07;;
5616;SDS011;2830;50.656;7.568;2023-04-07T06:11:49;20.50;;;10.37;;
5616;SDS011;2830;50.656;7.568;2023-04-07T06:14:16;20.30;;;10.40;;
5616;SDS011;2830;50.656;7.568;2023-04-07T06:16:43;23.57;;;11.17;;
5616;SDS011;2830;50.656;7.568;2023-04-07T06:19:10;22.90;;;11.30;;
5616;SDS011;2830;50.656;7.568;2023-04-07T06:21:37;21.17;;;9.97;;
5616;SDS011;2830;50.656;7.568;2023-04-07T06:24:05;20.97;;;9.70;;
5616;SDS011;2830;50.656;7.568;2023-04-07T06:26:32;22.47;;;10.33;;
5616;SDS011;2830;50.656;7.568;2023-04-07T06:28:59;25.27;;;10.17;;
5616;SDS011;2830;50.656;7.568;2023-04-07T06:31:26;23.10;;;10.80;;
5616;SDS011;2830;50.656;7.568;2023-04-07T06:33:53;22.53;;;11.37;;
5616;SDS011;2830;50.656;7.568;2023-04-07T06:36:19;21.00;;;10.03;;
5616;SDS011;2830;50.656;7.568;2023-04-07T06:38:48;30.23;;;16.10;;
5616;SDS011;2830;50.656;7.568;2023-04-07T06:41:15;25.67;;;13.20;;
5616;SDS011;2830;50.656;7.568;2023-04-07T06:43:48;22.00;;;8.70;;
5616;SDS011;2830;50.656;7.568;2023-04-07T06:46:17;21.43;;;9.07;;
5616;SDS011;2830;50.656;7.568;2023-04-07T06:48:44;19.33;;;7.37;;
5616;SDS011;2830;50.656;7.568;2023-04-07T06:51:11;20.27;;;8.77;;
5616;SDS011;2830;50.656;7.568;2023-04-07T06:53:38;19.53;;;7.93;;
5616;SDS011;2830;50.656;7.568;2023-04-07T06:56:10;24.07;;;9.70;;
5616;SDS011;2830;50.656;7.568;2023-04-07T06:58:37;20.70;;;7.70;;
5616;SDS011;2830;50.656;7.568;2023-04-07T07:01:04;23.77;;;9.20;;
5616;SDS011;2830;50.656;7.568;2023-04-07T07:03:31;22.57;;;10.27;;
5616;SDS011;2830;50.656;7.568;2023-04-07T07:05:58;23.30;;;9.83;;
5616;SDS011;2830;50.656;7.568;2023-04-07T07:08:26;20.90;;;9.17;;
5616;SDS011;2830;50.656;7.568;2023-04-07T07:10:54;22.40;;;9.50;;
5616;SDS011;2830;50.656;7.568;2023-04-07T07:13:22;23.07;;;10.27;;
5616;SDS011;2830;50.656;7.568;2023-04-07T07:15:50;23.17;;;10.00;;
5616;SDS011;2830;50.656;7.568;2023-04-07T07:18:17;34.20;;;17.50;;
5616;SDS011;2830;50.656;7.568;2023-04-07T07:20:44;25.63;;;10.97;;
5616;SDS011;2830;50.656;7.568;2023-04-07T07:23:11;23.20;;;9.77;;
5616;SDS011;2830;50.656;7.568;2023-04-07T07:25:38;23.90;;;8.80;;
5616;SDS011;2830;50.656;7.568;2023-04-07T07:28:05;25.30;;;9.93;;
5616;SDS011;2830;50.656;7.568;2023-04-07T07:30:32;24.60;;;10.60;;
5616;SDS011;2830;50.656;7.568;2023-04-07T07:32:58;21.80;;;9.00;;
5616;SDS011;2830;50.656;7.568;2023-04-07T07:35:25;43.17;;;22.47;;
5616;SDS011;2830;50.656;7.568;2023-04-07T07:37:52;22.23;;;8.90;;
5616;SDS011;2830;50.656;7.568;2023-04-07T07:40:19;25.33;;;9.47;;
5616;SDS011;2830;50.656;7.568;2023-04-07T07:42:46;24.17;;;8.53;;
5616;SDS011;2830;50.656;7.568;2023-04-07T07:45:12;22.23;;;7.80;;
5616;SDS011;2830;50.656;7.568;2023-04-07T07:47:39;20.57;;;7.57;;
5616;SDS011;2830;50.656;7.568;2023-04-07T07:50:07;21.03;;;7.83;;
5616;SDS011;2830;50.656;7.568;2023-04-07T07:52:34;23.40;;;7.90;;
5616;SDS011;2830;50.656;7.568;2023-04-07T07:55:00;19.33;;;7.03;;
5616;SDS011;2830;50.656;7.568;2023-04-07T07:57:27;19.40;;;7.10;;
5616;SDS011;2830;50.656;7.568;2023-04-07T07:59:56;18.47;;;6.73;;
5616;SDS011;2830;50.656;7.568;2023-04-07T08:02:23;19.40;;;8.07;;
5616;SDS011;2830;50.656;7.568;2023-04-07T08:04:56;17.00;;;6.60;;
5616;SDS011;2830;50.656;7.568;2023-04-07T08:07:23;20.73;;;6.70;;
5616;SDS011;2830;50.656;7.568;2023-04-07T08:09:50;22.67;;;10.67;;
5616;SDS011;2830;50.656;7.568;2023-04-07T08:12:17;21.20;;;8.60;;
5616;SDS011;2830;50.656;7.568;2023-04-07T08:14:44;19.77;;;6.80;;
5616;SDS011;2830;50.656;7.568;2023-04-07T08:17:10;17.97;;;6.40;;
5616;SDS011;2830;50.656;7.568;2023-04-07T08:19:37;17.30;;;6.70;;
5616;SDS011;2830;50.656;7.568;2023-04-07T08:22:04;20.10;;;7.03;;
5616;SDS011;2830;50.656;7.568;2023-04-07T08:24:31;16.53;;;5.80;;
5616;SDS011;2830;50.656;7.568;2023-04-07T08:26:57;17.57;;;5.80;;
5616;SDS011;2830;50.656;7.568;2023-04-07T08:29:24;17.90;;;6.13;;
5616;SDS011;2830;50.656;7.568;2023-04-07T08:31:51;16.50;;;5.70;;
5616;SDS011;2830;50.656;7.568;2023-04-07T08:34:17;17.33;;;6.03;;
5616;SDS011;2830;50.656;7.568;2023-04-07T08:36:46;17.80;;;5.87;;
5616;SDS011;2830;50.656;7.568;2023-04-07T08:39:13;18.00;;;6.20;;
5616;SDS011;2830;50.656;7.568;2023-04-07T08:41:40;17.80;;;6.27;;
5616;SDS011;2830;50.656;7.568;2023-04-07T08:44:07;16.87;;;5.50;;
5616;SDS011;2830;50.656;7.568;2023-04-07T08:46:39;17.40;;;5.67;;
5616;SDS011;2830;50.656;7.568;2023-04-07T08:49:07;15.77;;;5.30;;
5616;SDS011;2830;50.656;7.568;2023-04-07T08:51:36;14.37;;;4.60;;
5616;SDS011;2830;50.656;7.568;2023-04-07T08:54:04;14.70;;;5.17;;
5616;SDS011;2830;50.656;7.568;2023-04-07T08:56:35;16.77;;;5.90;;
5616;SDS011;2830;50.656;7.568;2023-04-07T08:59:06;15.00;;;4.27;;
5616;SDS011;2830;50.656;7.568;2023-04-07T09:01:34;15.87;;;5.80;;
5616;SDS011;2830;50.656;7.568;2023-04-07T09:04:02;23.63;;;10.77;;
5616;SDS011;2830;50.656;7.568;2023-04-07T09:06:30;15.80;;;5.97;;
5616;SDS011;2830;50.656;7.568;2023-04-07T09:08:57;14.07;;;4.53;;
5616;SDS011;2830;50.656;7.568;2023-04-07T09:11:28;12.40;;;3.73;;
5616;SDS011;2830;50.656;7.568;2023-04-07T09:13:55;13.20;;;3.90;;
5616;SDS011;2830;50.656;7.568;2023-04-07T09:16:22;13.77;;;4.77;;
5616;SDS011;2830;50.656;7.568;2023-04-07T09:18:49;13.93;;;4.30;;
5616;SDS011;2830;50.656;7.568;2023-04-07T09:21:18;13.93;;;4.10;;
5616;SDS011;2830;50.656;7.568;2023-04-07T09:23:45;13.33;;;3.53;;
5616;SDS011;2830;50.656;7.568;2023-04-07T09:26:26;13.90;;;4.10;;
5616;SDS011;2830;50.656;7.568;2023-04-07T09:28:56;17.80;;;3.80;;
5616;SDS011;2830;50.656;7.568;2023-04-07T09:36:52;14.03;;;3.97;;
5616;SDS011;2830;50.656;7.568;2023-04-07T09:39:19;13.77;;;4.37;;
5616;SDS011;2830;50.656;7.568;2023-04-07T09:41:46;13.40;;;4.27;;
5616;SDS011;2830;50.656;7.568;2023-04-07T09:44:12;18.20;;;5.50;;
5616;SDS011;2830;50.656;7.568;2023-04-07T09:49:19;18.93;;;4.70;;
5616;SDS011;2830;50.656;7.568;2023-04-07T09:51:59;18.60;;;5.57;;
5616;SDS011;2830;50.656;7.568;2023-04-07T09:54:31;15.10;;;5.00;;
5616;SDS011;2830;50.656;7.568;2023-04-07T09:57:01;15.77;;;5.70;;
5616;SDS011;2830;50.656;7.568;2023-04-07T09:59:39;15.43;;;5.57;;
5616;SDS011;2830;50.656;7.568;2023-04-07T10:02:10;18.20;;;6.17;;
5616;SDS011;2830;50.656;7.568;2023-04-07T10:04:37;19.37;;;6.83;;
5616;SDS011;2830;50.656;7.568;2023-04-07T10:07:05;18.30;;;7.27;;
5616;SDS011;2830;50.656;7.568;2023-04-07T10:09:32;18.67;;;7.40;;
5616;SDS011;2830;50.656;7.568;2023-04-07T10:11:59;16.37;;;5.53;;
5616;SDS011;2830;50.656;7.568;2023-04-07T10:14:27;16.00;;;5.90;;
5616;SDS011;2830;50.656;7.568;2023-04-07T10:16:56;16.63;;;6.43;;
5616;SDS011;2830;50.656;7.568;2023-04-07T10:19:31;18.23;;;7.33;;
5616;SDS011;2830;50.656;7.568;2023-04-07T10:22:00;18.47;;;6.60;;
5616;SDS011;2830;50.656;7.568;2023-04-07T10:27:13;19.77;;;7.40;;
5616;SDS011;2830;50.656;7.568;2023-04-07T10:29:45;17.20;;;6.90;;
5616;SDS011;2830;50.656;7.568;2023-04-07T10:32:14;17.00;;;6.93;;
5616;SDS011;2830;50.656;7.568;2023-04-07T10:37:16;17.87;;;7.60;;
5616;SDS011;2830;50.656;7.568;2023-04-07T10:39:46;19.30;;;7.73;;
5616;SDS011;2830;50.656;7.568;2023-04-07T10:48:21;17.93;;;6.50;;
5616;SDS011;2830;50.656;7.568;2023-04-07T10:53:30;24.03;;;8.30;;
5616;SDS011;2830;50.656;7.568;2023-04-07T10:55:57;23.53;;;7.33;;
5616;SDS011;2830;50.656;7.568;2023-04-07T10:58:32;18.27;;;7.00;;
5616;SDS011;2830;50.656;7.568;2023-04-07T11:03:30;20.43;;;7.57;;
5616;SDS011;2830;50.656;7.568;2023-04-07T11:06:05;17.67;;;6.53;;
5616;SDS011;2830;50.656;7.568;2023-04-07T11:11:04;19.73;;;6.40;;
5616;SDS011;2830;50.656;7.568;2023-04-07T11:13:44;19.13;;;6.87;;
5616;SDS011;2830;50.656;7.568;2023-04-07T11:16:13;18.27;;;7.70;;
5616;SDS011;2830;50.656;7.568;2023-04-07T11:18:42;18.93;;;6.80;;
5616;SDS011;2830;50.656;7.568;2023-04-07T11:21:09;20.27;;;8.20;;
5616;SDS011;2830;50.656;7.568;2023-04-07T11:23:37;20.73;;;7.97;;
5616;SDS011;2830;50.656;7.568;2023-04-07T11:26:08;17.93;;;6.90;;
5616;SDS011;2830;50.656;7.568;2023-04-07T11:28:47;17.63;;;6.60;;
5616;SDS011;2830;50.656;7.568;2023-04-07T11:31:21;16.50;;;5.60;;
5616;SDS011;2830;50.656;7.568;2023-04-07T11:33:53;18.40;;;7.20;;
5616;SDS011;2830;50.656;7.568;2023-04-07T11:36:25;19.73;;;6.93;;
5616;SDS011;2830;50.656;7.568;2023-04-07T11:38:59;17.10;;;6.43;;
5616;SDS011;2830;50.656;7.568;2023-04-07T11:41:28;18.40;;;7.30;;
5616;SDS011;2830;50.656;7.568;2023-04-07T11:44:10;17.43;;;6.50;;
5616;SDS011;2830;50.656;7.568;2023-04-07T11:46:51;17.90;;;7.20;;
5616;SDS011;2830;50.656;7.568;2023-04-07T11:49:19;20.00;;;9.73;;
5616;SDS011;2830;50.656;7.568;2023-04-07T11:51:45;19.23;;;7.70;;
5616;SDS011;2830;50.656;7.568;2023-04-07T11:54:12;17.27;;;6.10;;
5616;SDS011;2830;50.656;7.568;2023-04-07T11:56:43;25.20;;;8.47;;
5616;SDS011;2830;50.656;7.568;2023-04-07T11:59:23;22.00;;;8.73;;
5616;SDS011;2830;50.656;7.568;2023-04-07T12:01:51;20.90;;;8.33;;
5616;SDS011;2830;50.656;7.568;2023-04-07T12:04:22;21.00;;;8.30;;
5616;SDS011;2830;50.656;7.568;2023-04-07T12:06:49;24.80;;;10.40;;
5616;SDS011;2830;50.656;7.568;2023-04-07T12:09:32;20.53;;;7.80;;
5616;SDS011;2830;50.656;7.568;2023-04-07T12:12:03;16.83;;;6.90;;
5616;SDS011;2830;50.656;7.568;2023-04-07T12:14:33;15.00;;;5.20;;
5616;SDS011;2830;50.656;7.568;2023-04-07T12:17:01;16.43;;;5.53;;
5616;SDS011;2830;50.656;7.568;2023-04-07T12:19:30;16.70;;;6.27;;
5616;SDS011;2830;50.656;7.568;2023-04-07T12:22:04;16.17;;;5.70;;
5616;SDS011;2830;50.656;7.568;2023-04-07T12:24:31;14.13;;;4.73;;
5616;SDS011;2830;50.656;7.568;2023-04-07T12:26:58;14.40;;;4.87;;
5616;SDS011;2830;50.656;7.568;2023-04-07T12:29:25;16.17;;;5.23;;
5616;SDS011;2830;50.656;7.568;2023-04-07T12:31:51;13.80;;;4.13;;
5616;SDS011;2830;50.656;7.568;2023-04-07T12:34:18;15.13;;;5.07;;
5616;SDS011;2830;50.656;7.568;2023-04-07T12:36:45;18.87;;;4.90;;
5616;SDS011;2830;50.656;7.568;2023-04-07T12:39:12;18.00;;;5.67;;
5616;SDS011;2830;50.656;7.568;2023-04-07T12:41:39;14.63;;;4.20;;
5616;SDS011;2830;50.656;7.568;2023-04-07T12:44:07;14.83;;;4.33;;
5616;SDS011;2830;50.656;7.568;2023-04-07T12:46:34;14.50;;;5.17;;
5616;SDS011;2830;50.656;7.568;2023-04-07T12:49:01;16.93;;;5.80;;
5616;SDS011;2830;50.656;7.568;2023-04-07T12:51:29;15.90;;;5.87;;
5616;SDS011;2830;50.656;7.568;2023-04-07T12:53:58;17.57;;;6.40;;
5616;SDS011;2830;50.656;7.568;2023-04-07T12:56:28;17.10;;;6.20;;
5616;SDS011;2830;50.656;7.568;2023-04-07T12:58:55;14.73;;;5.53;;
5616;SDS011;2830;50.656;7.568;2023-04-07T13:01:22;17.80;;;6.67;;
5616;SDS011;2830;50.656;7.568;2023-04-07T13:03:49;15.33;;;5.60;;
5616;SDS011;2830;50.656;7.568;2023-04-07T13:06:16;15.90;;;5.27;;
5616;SDS011;2830;50.656;7.568;2023-04-07T13:08:44;15.87;;;6.00;;
5616;SDS011;2830;50.656;7.568;2023-04-07T13:11:10;14.97;;;5.73;;
5616;SDS011;2830;50.656;7.568;2023-04-07T13:13:37;16.10;;;5.93;;
5616;SDS011;2830;50.656;7.568;2023-04-07T13:16:06;18.67;;;7.90;;
5616;SDS011;2830;50.656;7.568;2023-04-07T13:18:33;19.90;;;6.83;;
5616;SDS011;2830;50.656;7.568;2023-04-07T13:21:00;15.60;;;6.10;;
5616;SDS011;2830;50.656;7.568;2023-04-07T13:23:49;16.47;;;6.03;;
5616;SDS011;2830;50.656;7.568;2023-04-07T13:26:16;15.57;;;5.50;;
5616;SDS011;2830;50.656;7.568;2023-04-07T13:28:44;17.10;;;6.93;;
5616;SDS011;2830;50.656;7.568;2023-04-07T13:31:12;20.27;;;7.80;;
5616;SDS011;2830;50.656;7.568;2023-04-07T13:33:41;19.63;;;8.23;;
5616;SDS011;2830;50.656;7.568;2023-04-07T13:36:08;19.40;;;7.43;;
5616;SDS011;2830;50.656;7.568;2023-04-07T13:38:35;19.67;;;7.83;;
5616;SDS011;2830;50.656;7.568;2023-04-07T13:41:02;19.20;;;7.70;;
5616;SDS011;2830;50.656;7.568;2023-04-07T13:43:29;17.97;;;7.00;;
5616;SDS011;2830;50.656;7.568;2023-04-07T13:45:55;18.60;;;7.40;;
5616;SDS011;2830;50.656;7.568;2023-04-07T13:48:22;20.67;;;8.10;;
5616;SDS011;2830;50.656;7.568;2023-04-07T13:50:49;19.70;;;7.87;;
5616;SDS011;2830;50.656;7.568;2023-04-07T13:53:15;23.20;;;7.93;;
5616;SDS011;2830;50.656;7.568;2023-04-07T13:55:44;18.53;;;7.77;;
5616;SDS011;2830;50.656;7.568;2023-04-07T13:58:11;20.47;;;8.33;;
5616;SDS011;2830;50.656;7.568;2023-04-07T14:00:37;21.07;;;8.73;;
5616;SDS011;2830;50.656;7.568;2023-04-07T14:03:05;24.33;;;8.70;;
5616;SDS011;2830;50.656;7.568;2023-04-07T14:05:33;25.53;;;9.47;;
5616;SDS011;2830;50.656;7.568;2023-04-07T14:08:00;17.87;;;7.70;;
5616;SDS011;2830;50.656;7.568;2023-04-07T14:10:27;19.13;;;7.60;;
5616;SDS011;2830;50.656;7.568;2023-04-07T14:12:54;17.67;;;8.03;;
5616;SDS011;2830;50.656;7.568;2023-04-07T14:15:21;19.73;;;9.70;;
5616;SDS011;2830;50.656;7.568;2023-04-07T14:17:48;20.27;;;8.80;;
5616;SDS011;2830;50.656;7.568;2023-04-07T14:20:15;18.70;;;9.00;;
5616;SDS011;2830;50.656;7.568;2023-04-07T14:22:41;19.70;;;7.70;;
5616;SDS011;2830;50.656;7.568;2023-04-07T14:25:08;17.40;;;7.73;;
5616;SDS011;2830;50.656;7.568;2023-04-07T14:27:36;21.97;;;9.43;;
5616;SDS011;2830;50.656;7.568;2023-04-07T14:30:04;19.90;;;8.87;;
5616;SDS011;2830;50.656;7.568;2023-04-07T14:32:32;21.30;;;9.40;;
5616;SDS011;2830;50.656;7.568;2023-04-07T14:34:59;19.17;;;8.77;;
5616;SDS011;2830;50.656;7.568;2023-04-07T14:37:27;21.13;;;8.20;;
5616;SDS011;2830;50.656;7.568;2023-04-07T14:39:54;21.83;;;9.83;;
5616;SDS011;2830;50.656;7.568;2023-04-07T14:42:24;21.60;;;9.70;;
5616;SDS011;2830;50.656;7.568;2023-04-07T14:44:51;20.60;;;8.90;;
5616;SDS011;2830;50.656;7.568;2023-04-07T14:47:18;21.60;;;9.07;;
5616;SDS011;2830;50.656;7.568;2023-04-07T14:49:45;23.57;;;10.40;;
5616;SDS011;2830;50.656;7.568;2023-04-07T14:52:12;22.23;;;11.03;;
5616;SDS011;2830;50.656;7.568;2023-04-07T14:54:39;20.80;;;9.30;;
5616;SDS011;2830;50.656;7.568;2023-04-07T14:57:05;22.97;;;9.97;;
5616;SDS011;2830;50.656;7.568;2023-04-07T14:59:32;22.60;;;10.73;;
5616;SDS011;2830;50.656;7.568;2023-04-07T15:01:59;22.30;;;10.60;;
5616;SDS011;2830;50.656;7.568;2023-04-07T15:04:26;25.27;;;10.93;;
5616;SDS011;2830;50.656;7.568;2023-04-07T15:06:52;27.00;;;13.07;;
5616;SDS011;2830;50.656;7.568;2023-04-07T15:09:19;21.93;;;11.00;;
5616;SDS011;2830;50.656;7.568;2023-04-07T15:11:46;25.90;;;11.40;;
5616;SDS011;2830;50.656;7.568;2023-04-07T15:14:13;26.53;;;12.07;;
5616;SDS011;2830;50.656;7.568;2023-04-07T15:16:40;23.83;;;10.90;;
5616;SDS011;2830;50.656;7.568;2023-04-07T15:19:06;23.27;;;10.43;;
5616;SDS011;2830;50.656;7.568;2023-04-07T15:21:33;21.13;;;10.90;;
5616;SDS011;2830;50.656;7.568;2023-04-07T15:23:59;20.13;;;9.37;;
5616;SDS011;2830;50.656;7.568;2023-04-07T15:26:26;23.17;;;9.40;;
5616;SDS011;2830;50.656;7.568;2023-04-07T15:28:53;19.53;;;10.10;;
5616;SDS011;2830;50.656;7.568;2023-04-07T15:31:19;20.87;;;9.57;;
5616;SDS011;2830;50.656;7.568;2023-04-07T15:33:48;20.17;;;8.97;;
5616;SDS011;2830;50.656;7.568;2023-04-07T15:36:15;21.67;;;9.60;;